sensor_id;sensor_type;location;lat;lon;timestamp;P1;durP1;ratioP1;P2;durP2;ratioP2
18917;SDS011;9591;52.742;13.650;2024-03-17T00:00:22;9.83;;;1.97;;
18917;SDS011;9591;52.742;13.650;2024-03-17T00:03:08;19.83;;;2.97;;
18917;SDS011;9591;52.742;13.650;2024-03-17T00:05:55;9.17;;;2.17;;
18917;SDS011;9591;52.742;13.650;2024-03-17T00:08:41;7.83;;;2.40;;
18917;SDS011;9591;52.742;13.650;2024-03-17T00:11:26;6.13;;;2.10;;
18917;SDS011;9591;52.742;13.650;2024-03-17T00:14:12;13.63;;;2.50;;
18917;SDS011;9591;52.742;13.650;2024-03-17T00:17:01;5.20;;;2.50;;
18917;SDS011;9591;52.742;13.650;2024-03-17T00:19:54;6.77;;;1.70;;
18917;SDS011;9591;52.742;13.650;2024-03-17T00:22:40;4.67;;;1.93;;
18917;SDS011;9591;52.742;13.650;2024-03-17T00:25:26;4.60;;;2.07;;
18917;SDS011;9591;52.742;13.650;2024-03-17T00:28:12;7.40;;;1.90;;
18917;SDS011;9591;52.742;13.650;2024-03-17T00:30:58;12.53;;;3.07;;
18917;SDS011;9591;52.742;13.650;2024-03-17T00:33:52;10.10;;;2.17;;
18917;SDS011;9591;52.742;13.650;2024-03-17T00:36:40;6.87;;;2.37;;
18917;SDS011;9591;52.742;13.650;2024-03-17T00:39:25;12.13;;;2.03;;
18917;SDS011;9591;52.742;13.650;2024-03-17T00:42:13;8.07;;;2.33;;
18917;SDS011;9591;52.742;13.650;2024-03-17T00:44:59;10.20;;;2.40;;
18917;SDS011;9591;52.742;13.650;2024-03-17T00:47:51;5.80;;;2.27;;
18917;SDS011;9591;52.742;13.650;2024-03-17T00:50:37;20.50;;;2.43;;
18917;SDS011;9591;52.742;13.650;2024-03-17T00:53:25;8.37;;;2.47;;
18917;SDS011;9591;52.742;13.650;2024-03-17T00:56:11;10.27;;;2.30;;
18917;SDS011;9591;52.742;13.650;2024-03-17T00:59:00;11.70;;;2.50;;
18917;SDS011;9591;52.742;13.650;2024-03-17T01:01:45;10.20;;;2.87;;
18917;SDS011;9591;52.742;13.650;2024-03-17T01:04:31;8.07;;;2.87;;
18917;SDS011;9591;52.742;13.650;2024-03-17T01:07:21;19.07;;;2.80;;
18917;SDS011;9591;52.742;13.650;2024-03-17T01:10:06;6.43;;;2.33;;
18917;SDS011;9591;52.742;13.650;2024-03-17T01:12:55;10.77;;;2.23;;
18917;SDS011;9591;52.742;13.650;2024-03-17T01:15:40;11.80;;;2.33;;
18917;SDS011;9591;52.742;13.650;2024-03-17T01:18:29;10.47;;;2.43;;
18917;SDS011;9591;52.742;13.650;2024-03-17T01:21:17;8.97;;;1.63;;
18917;SDS011;9591;52.742;13.650;2024-03-17T01:24:08;8.63;;;1.97;;
18917;SDS011;9591;52.742;13.650;2024-03-17T01:26:53;16.30;;;1.97;;
18917;SDS011;9591;52.742;13.650;2024-03-17T01:29:39;9.10;;;2.00;;
18917;SDS011;9591;52.742;13.650;2024-03-17T01:32:25;9.33;;;2.83;;
18917;SDS011;9591;52.742;13.650;2024-03-17T01:35:10;6.33;;;2.60;;
18917;SDS011;9591;52.742;13.650;2024-03-17T01:37:56;14.63;;;2.43;;
18917;SDS011;9591;52.742;13.650;2024-03-17T01:40:45;7.90;;;2.67;;
18917;SDS011;9591;52.742;13.650;2024-03-17T01:43:33;9.60;;;2.30;;
18917;SDS011;9591;52.742;13.650;2024-03-17T01:46:18;6.07;;;1.53;;
18917;SDS011;9591;52.742;13.650;2024-03-17T01:49:07;7.57;;;2.50;;
18917;SDS011;9591;52.742;13.650;2024-03-17T01:51:58;8.17;;;2.17;;
18917;SDS011;9591;52.742;13.650;2024-03-17T01:54:43;13.63;;;2.17;;
18917;SDS011;9591;52.742;13.650;2024-03-17T01:57:37;10.10;;;2.60;;
18917;SDS011;9591;52.742;13.650;2024-03-17T02:00:21;14.53;;;2.20;;
18917;SDS011;9591;52.742;13.650;2024-03-17T02:03:11;7.90;;;3.00;;
18917;SDS011;9591;52.742;13.650;2024-03-17T02:06:04;7.30;;;1.90;;
18917;SDS011;9591;52.742;13.650;2024-03-17T02:08:54;16.10;;;2.37;;
18917;SDS011;9591;52.742;13.650;2024-03-17T02:11:48;9.23;;;2.30;;
18917;SDS011;9591;52.742;13.650;2024-03-17T02:14:39;4.57;;;1.60;;
18917;SDS011;9591;52.742;13.650;2024-03-17T02:17:25;10.57;;;2.50;;
18917;SDS011;9591;52.742;13.650;2024-03-17T02:20:16;8.47;;;2.13;;
18917;SDS011;9591;52.742;13.650;2024-03-17T02:23:04;10.33;;;2.30;;
18917;SDS011;9591;52.742;13.650;2024-03-17T02:25:53;11.83;;;1.97;;
18917;SDS011;9591;52.742;13.650;2024-03-17T02:28:39;5.40;;;2.67;;
18917;SDS011;9591;52.742;13.650;2024-03-17T02:31:24;7.43;;;2.30;;
18917;SDS011;9591;52.742;13.650;2024-03-17T02:34:13;15.17;;;3.00;;
18917;SDS011;9591;52.742;13.650;2024-03-17T02:36:58;5.13;;;2.13;;
18917;SDS011;9591;52.742;13.650;2024-03-17T02:39:49;11.40;;;3.37;;
18917;SDS011;9591;52.742;13.650;2024-03-17T02:42:34;12.10;;;2.10;;
18917;SDS011;9591;52.742;13.650;2024-03-17T02:45:20;11.83;;;2.57;;
18917;SDS011;9591;52.742;13.650;2024-03-17T02:48:06;8.97;;;2.10;;
18917;SDS011;9591;52.742;13.650;2024-03-17T02:54:04;8.53;;;2.40;;
18917;SDS011;9591;52.742;13.650;2024-03-17T02:56:56;10.03;;;2.67;;
18917;SDS011;9591;52.742;13.650;2024-03-17T02:59:42;9.03;;;2.10;;
18917;SDS011;9591;52.742;13.650;2024-03-17T03:02:31;9.53;;;2.23;;
18917;SDS011;9591;52.742;13.650;2024-03-17T03:05:17;12.43;;;3.70;;
18917;SDS011;9591;52.742;13.650;2024-03-17T03:08:03;4.47;;;2.47;;
18917;SDS011;9591;52.742;13.650;2024-03-17T03:10:49;5.03;;;2.20;;
18917;SDS011;9591;52.742;13.650;2024-03-17T03:13:37;7.77;;;2.10;;
18917;SDS011;9591;52.742;13.650;2024-03-17T03:16:24;6.30;;;2.17;;
18917;SDS011;9591;52.742;13.650;2024-03-17T03:19:09;10.40;;;3.07;;
18917;SDS011;9591;52.742;13.650;2024-03-17T03:21:55;7.70;;;2.63;;
18917;SDS011;9591;52.742;13.650;2024-03-17T03:24:41;8.20;;;2.47;;
18917;SDS011;9591;52.742;13.650;2024-03-17T03:27:27;16.40;;;2.17;;
18917;SDS011;9591;52.742;13.650;2024-03-17T03:30:15;15.83;;;2.03;;
18917;SDS011;9591;52.742;13.650;2024-03-17T03:33:06;14.80;;;3.13;;
18917;SDS011;9591;52.742;13.650;2024-03-17T03:35:54;17.43;;;2.47;;
18917;SDS011;9591;52.742;13.650;2024-03-17T03:38:41;9.03;;;1.70;;
18917;SDS011;9591;52.742;13.650;2024-03-17T03:41:26;25.77;;;2.33;;
18917;SDS011;9591;52.742;13.650;2024-03-17T03:44:12;13.13;;;2.47;;
18917;SDS011;9591;52.742;13.650;2024-03-17T03:47:01;10.47;;;2.20;;
18917;SDS011;9591;52.742;13.650;2024-03-17T03:49:50;11.13;;;2.10;;
18917;SDS011;9591;52.742;13.650;2024-03-17T03:52:38;9.47;;;1.90;;
18917;SDS011;9591;52.742;13.650;2024-03-17T03:58:37;11.63;;;2.27;;
18917;SDS011;9591;52.742;13.650;2024-03-17T04:01:27;8.20;;;1.70;;
18917;SDS011;9591;52.742;13.650;2024-03-17T04:04:14;11.77;;;2.47;;
18917;SDS011;9591;52.742;13.650;2024-03-17T04:07:00;7.27;;;2.03;;
18917;SDS011;9591;52.742;13.650;2024-03-17T04:09:50;11.80;;;2.23;;
18917;SDS011;9591;52.742;13.650;2024-03-17T04:12:38;11.17;;;2.40;;
18917;SDS011;9591;52.742;13.650;2024-03-17T04:15:27;8.00;;;2.33;;
18917;SDS011;9591;52.742;13.650;2024-03-17T04:18:15;11.07;;;2.37;;
18917;SDS011;9591;52.742;13.650;2024-03-17T04:21:08;5.87;;;2.20;;
18917;SDS011;9591;52.742;13.650;2024-03-17T04:23:56;7.83;;;1.80;;
18917;SDS011;9591;52.742;13.650;2024-03-17T04:26:42;13.80;;;2.37;;
18917;SDS011;9591;52.742;13.650;2024-03-17T04:29:42;12.27;;;2.50;;
18917;SDS011;9591;52.742;13.650;2024-03-17T04:32:28;8.90;;;2.57;;
18917;SDS011;9591;52.742;13.650;2024-03-17T04:35:26;13.40;;;2.13;;
18917;SDS011;9591;52.742;13.650;2024-03-17T04:38:14;13.20;;;2.63;;
18917;SDS011;9591;52.742;13.650;2024-03-17T04:41:00;6.07;;;1.97;;
18917;SDS011;9591;52.742;13.650;2024-03-17T04:43:56;7.83;;;2.20;;
18917;SDS011;9591;52.742;13.650;2024-03-17T04:46:43;19.60;;;2.10;;
18917;SDS011;9591;52.742;13.650;2024-03-17T04:49:34;6.63;;;2.23;;
18917;SDS011;9591;52.742;13.650;2024-03-17T04:52:21;4.47;;;1.80;;
18917;SDS011;9591;52.742;13.650;2024-03-17T04:55:13;10.00;;;2.27;;
18917;SDS011;9591;52.742;13.650;2024-03-17T04:57:59;3.23;;;1.77;;
18917;SDS011;9591;52.742;13.650;2024-03-17T05:00:46;8.97;;;2.27;;
18917;SDS011;9591;52.742;13.650;2024-03-17T05:03:36;6.83;;;2.40;;
18917;SDS011;9591;52.742;13.650;2024-03-17T05:06:21;19.00;;;2.47;;
18917;SDS011;9591;52.742;13.650;2024-03-17T05:09:11;8.37;;;1.73;;
18917;SDS011;9591;52.742;13.650;2024-03-17T05:12:00;11.13;;;2.40;;
18917;SDS011;9591;52.742;13.650;2024-03-17T05:14:47;11.13;;;2.00;;
18917;SDS011;9591;52.742;13.650;2024-03-17T05:17:35;16.10;;;2.23;;
18917;SDS011;9591;52.742;13.650;2024-03-17T05:20:24;6.23;;;2.63;;
18917;SDS011;9591;52.742;13.650;2024-03-17T05:23:10;15.50;;;2.43;;
18917;SDS011;9591;52.742;13.650;2024-03-17T05:25:57;13.77;;;2.57;;
18917;SDS011;9591;52.742;13.650;2024-03-17T05:28:54;10.63;;;1.97;;
18917;SDS011;9591;52.742;13.650;2024-03-17T05:31:40;6.23;;;2.63;;
18917;SDS011;9591;52.742;13.650;2024-03-17T05:34:28;8.60;;;2.13;;
18917;SDS011;9591;52.742;13.650;2024-03-17T05:37:37;7.80;;;2.53;;
18917;SDS011;9591;52.742;13.650;2024-03-17T05:40:23;7.93;;;3.10;;
18917;SDS011;9591;52.742;13.650;2024-03-17T05:43:09;11.27;;;2.80;;
18917;SDS011;9591;52.742;13.650;2024-03-17T05:46:05;17.13;;;2.80;;
18917;SDS011;9591;52.742;13.650;2024-03-17T05:49:13;10.83;;;2.23;;
18917;SDS011;9591;52.742;13.650;2024-03-17T05:52:01;13.17;;;2.97;;
18917;SDS011;9591;52.742;13.650;2024-03-17T05:54:47;12.23;;;2.10;;
18917;SDS011;9591;52.742;13.650;2024-03-17T05:57:33;16.27;;;2.40;;
18917;SDS011;9591;52.742;13.650;2024-03-17T06:00:21;7.57;;;2.37;;
18917;SDS011;9591;52.742;13.650;2024-03-17T06:03:14;12.33;;;2.07;;
18917;SDS011;9591;52.742;13.650;2024-03-17T06:06:00;16.43;;;3.70;;
18917;SDS011;9591;52.742;13.650;2024-03-17T06:08:46;9.97;;;1.90;;
18917;SDS011;9591;52.742;13.650;2024-03-17T06:11:34;14.33;;;2.57;;
18917;SDS011;9591;52.742;13.650;2024-03-17T06:14:20;15.60;;;2.33;;
18917;SDS011;9591;52.742;13.650;2024-03-17T06:17:06;3.60;;;1.47;;
18917;SDS011;9591;52.742;13.650;2024-03-17T06:19:59;15.30;;;2.33;;
18917;SDS011;9591;52.742;13.650;2024-03-17T06:22:51;12.93;;;2.47;;
18917;SDS011;9591;52.742;13.650;2024-03-17T06:25:45;8.60;;;2.20;;
18917;SDS011;9591;52.742;13.650;2024-03-17T06:28:35;12.70;;;2.40;;
18917;SDS011;9591;52.742;13.650;2024-03-17T06:31:24;16.37;;;2.20;;
18917;SDS011;9591;52.742;13.650;2024-03-17T06:34:12;12.60;;;2.50;;
18917;SDS011;9591;52.742;13.650;2024-03-17T06:37:04;9.57;;;2.20;;
18917;SDS011;9591;52.742;13.650;2024-03-17T06:39:53;11.67;;;2.47;;
18917;SDS011;9591;52.742;13.650;2024-03-17T06:42:39;5.57;;;1.93;;
18917;SDS011;9591;52.742;13.650;2024-03-17T06:45:25;9.60;;;2.10;;
18917;SDS011;9591;52.742;13.650;2024-03-17T06:48:11;16.00;;;2.50;;
18917;SDS011;9591;52.742;13.650;2024-03-17T06:50:59;2.77;;;2.10;;
18917;SDS011;9591;52.742;13.650;2024-03-17T06:53:46;10.10;;;2.67;;
18917;SDS011;9591;52.742;13.650;2024-03-17T06:56:35;8.30;;;2.37;;
18917;SDS011;9591;52.742;13.650;2024-03-17T06:59:24;8.90;;;2.00;;
18917;SDS011;9591;52.742;13.650;2024-03-17T07:02:10;12.30;;;2.20;;
18917;SDS011;9591;52.742;13.650;2024-03-17T07:05:02;8.73;;;2.03;;
18917;SDS011;9591;52.742;13.650;2024-03-17T07:07:48;5.07;;;1.60;;
18917;SDS011;9591;52.742;13.650;2024-03-17T07:10:37;11.70;;;2.03;;
18917;SDS011;9591;52.742;13.650;2024-03-17T07:13:23;12.03;;;2.20;;
18917;SDS011;9591;52.742;13.650;2024-03-17T07:16:08;15.23;;;2.43;;
18917;SDS011;9591;52.742;13.650;2024-03-17T07:18:55;7.47;;;2.60;;
18917;SDS011;9591;52.742;13.650;2024-03-17T07:21:44;11.37;;;2.27;;
18917;SDS011;9591;52.742;13.650;2024-03-17T07:24:34;8.10;;;1.73;;
18917;SDS011;9591;52.742;13.650;2024-03-17T07:27:30;5.77;;;1.90;;
18917;SDS011;9591;52.742;13.650;2024-03-17T07:30:22;9.23;;;2.23;;
18917;SDS011;9591;52.742;13.650;2024-03-17T07:33:07;7.00;;;1.87;;
18917;SDS011;9591;52.742;13.650;2024-03-17T07:35:56;11.67;;;2.73;;
18917;SDS011;9591;52.742;13.650;2024-03-17T07:38:54;16.47;;;2.20;;
18917;SDS011;9591;52.742;13.650;2024-03-17T07:41:42;7.10;;;1.87;;
18917;SDS011;9591;52.742;13.650;2024-03-17T07:44:30;5.63;;;2.27;;
18917;SDS011;9591;52.742;13.650;2024-03-17T07:47:19;12.10;;;2.70;;
18917;SDS011;9591;52.742;13.650;2024-03-17T07:50:08;12.73;;;2.33;;
18917;SDS011;9591;52.742;13.650;2024-03-17T07:52:57;8.30;;;1.30;;
18917;SDS011;9591;52.742;13.650;2024-03-17T07:55:43;9.37;;;2.57;;
18917;SDS011;9591;52.742;13.650;2024-03-17T07:58:32;6.80;;;2.17;;
18917;SDS011;9591;52.742;13.650;2024-03-17T08:01:22;8.63;;;2.07;;
18917;SDS011;9591;52.742;13.650;2024-03-17T08:04:11;5.60;;;2.03;;
18917;SDS011;9591;52.742;13.650;2024-03-17T08:06:57;6.70;;;2.10;;
18917;SDS011;9591;52.742;13.650;2024-03-17T08:09:43;7.07;;;1.60;;
18917;SDS011;9591;52.742;13.650;2024-03-17T08:12:29;6.03;;;1.93;;
18917;SDS011;9591;52.742;13.650;2024-03-17T08:15:16;5.83;;;1.63;;
18917;SDS011;9591;52.742;13.650;2024-03-17T08:18:04;2.67;;;1.70;;
18917;SDS011;9591;52.742;13.650;2024-03-17T08:20:52;9.33;;;1.90;;
18917;SDS011;9591;52.742;13.650;2024-03-17T08:23:43;5.03;;;1.77;;
18917;SDS011;9591;52.742;13.650;2024-03-17T08:26:31;8.87;;;2.10;;
18917;SDS011;9591;52.742;13.650;2024-03-17T08:29:20;1.90;;;1.30;;
18917;SDS011;9591;52.742;13.650;2024-03-17T08:32:06;8.50;;;2.10;;
18917;SDS011;9591;52.742;13.650;2024-03-17T08:34:56;7.20;;;1.80;;
18917;SDS011;9591;52.742;13.650;2024-03-17T08:37:42;3.73;;;1.57;;
18917;SDS011;9591;52.742;13.650;2024-03-17T08:40:31;8.63;;;2.53;;
18917;SDS011;9591;52.742;13.650;2024-03-17T08:43:17;10.83;;;2.63;;
18917;SDS011;9591;52.742;13.650;2024-03-17T08:46:06;5.50;;;1.57;;
18917;SDS011;9591;52.742;13.650;2024-03-17T08:49:00;7.93;;;1.77;;
18917;SDS011;9591;52.742;13.650;2024-03-17T08:51:49;17.40;;;2.17;;
18917;SDS011;9591;52.742;13.650;2024-03-17T08:54:35;13.57;;;2.10;;
18917;SDS011;9591;52.742;13.650;2024-03-17T08:57:21;13.13;;;2.33;;
18917;SDS011;9591;52.742;13.650;2024-03-17T09:00:10;7.50;;;2.10;;
18917;SDS011;9591;52.742;13.650;2024-03-17T09:02:56;6.23;;;1.93;;
18917;SDS011;9591;52.742;13.650;2024-03-17T09:05:43;15.87;;;2.13;;
18917;SDS011;9591;52.742;13.650;2024-03-17T09:08:36;13.90;;;2.30;;
18917;SDS011;9591;52.742;13.650;2024-03-17T09:11:24;7.60;;;2.27;;
18917;SDS011;9591;52.742;13.650;2024-03-17T09:14:13;6.47;;;1.80;;
18917;SDS011;9591;52.742;13.650;2024-03-17T09:17:02;7.50;;;1.87;;
18917;SDS011;9591;52.742;13.650;2024-03-17T09:19:51;5.50;;;2.40;;
18917;SDS011;9591;52.742;13.650;2024-03-17T09:22:37;6.23;;;2.10;;
18917;SDS011;9591;52.742;13.650;2024-03-17T09:25:27;11.57;;;1.93;;
18917;SDS011;9591;52.742;13.650;2024-03-17T09:28:24;10.70;;;1.80;;
18917;SDS011;9591;52.742;13.650;2024-03-17T09:31:09;9.37;;;2.37;;
18917;SDS011;9591;52.742;13.650;2024-03-17T09:33:59;8.00;;;2.10;;
18917;SDS011;9591;52.742;13.650;2024-03-17T09:36:46;9.93;;;2.37;;
18917;SDS011;9591;52.742;13.650;2024-03-17T09:39:34;10.43;;;2.27;;
18917;SDS011;9591;52.742;13.650;2024-03-17T09:42:26;4.57;;;2.03;;
18917;SDS011;9591;52.742;13.650;2024-03-17T09:45:19;7.70;;;2.27;;
18917;SDS011;9591;52.742;13.650;2024-03-17T09:48:06;4.13;;;1.87;;
18917;SDS011;9591;52.742;13.650;2024-03-17T09:50:57;2.37;;;1.60;;
18917;SDS011;9591;52.742;13.650;2024-03-17T09:53:51;2.37;;;1.60;;
18917;SDS011;9591;52.742;13.650;2024-03-17T09:56:38;7.07;;;1.43;;
18917;SDS011;9591;52.742;13.650;2024-03-17T09:59:27;3.20;;;1.40;;
18917;SDS011;9591;52.742;13.650;2024-03-17T10:02:16;2.70;;;1.70;;
18917;SDS011;9591;52.742;13.650;2024-03-17T10:05:06;5.30;;;1.73;;
18917;SDS011;9591;52.742;13.650;2024-03-17T10:08:04;4.70;;;1.50;;
18917;SDS011;9591;52.742;13.650;2024-03-17T10:10:52;2.40;;;1.70;;
18917;SDS011;9591;52.742;13.650;2024-03-17T10:13:39;2.97;;;1.70;;
18917;SDS011;9591;52.742;13.650;2024-03-17T10:16:35;5.13;;;1.40;;
18917;SDS011;9591;52.742;13.650;2024-03-17T10:19:25;4.70;;;1.40;;
18917;SDS011;9591;52.742;13.650;2024-03-17T10:22:13;3.53;;;1.73;;
18917;SDS011;9591;52.742;13.650;2024-03-17T10:25:03;1.67;;;1.50;;
18917;SDS011;9591;52.742;13.650;2024-03-17T10:27:54;1.60;;;1.50;;
18917;SDS011;9591;52.742;13.650;2024-03-17T10:30:42;4.37;;;1.27;;
18917;SDS011;9591;52.742;13.650;2024-03-17T10:34:12;1.97;;;1.73;;
18917;SDS011;9591;52.742;13.650;2024-03-17T10:37:09;1.70;;;1.00;;
18917;SDS011;9591;52.742;13.650;2024-03-17T10:39:56;5.40;;;1.63;;
18917;SDS011;9591;52.742;13.650;2024-03-17T10:42:44;1.57;;;1.47;;
18917;SDS011;9591;52.742;13.650;2024-03-17T10:45:41;1.73;;;1.40;;
18917;SDS011;9591;52.742;13.650;2024-03-17T10:48:30;1.53;;;1.43;;
18917;SDS011;9591;52.742;13.650;2024-03-17T10:51:23;5.17;;;1.10;;
18917;SDS011;9591;52.742;13.650;2024-03-17T10:54:20;1.60;;;1.50;;
18917;SDS011;9591;52.742;13.650;2024-03-17T10:57:27;1.70;;;1.40;;
18917;SDS011;9591;52.742;13.650;2024-03-17T11:00:25;4.77;;;1.17;;
18917;SDS011;9591;52.742;13.650;2024-03-17T11:03:14;1.53;;;1.37;;
18917;SDS011;9591;52.742;13.650;2024-03-17T11:06:03;2.73;;;1.40;;
18917;SDS011;9591;52.742;13.650;2024-03-17T11:08:59;2.47;;;1.30;;
18917;SDS011;9591;52.742;13.650;2024-03-17T11:11:50;1.00;;;0.90;;
18917;SDS011;9591;52.742;13.650;2024-03-17T11:14:36;3.60;;;1.10;;
18917;SDS011;9591;52.742;13.650;2024-03-17T11:17:22;1.47;;;1.00;;
18917;SDS011;9591;52.742;13.650;2024-03-17T11:20:11;2.07;;;1.33;;
18917;SDS011;9591;52.742;13.650;2024-03-17T11:23:12;1.40;;;1.30;;
18917;SDS011;9591;52.742;13.650;2024-03-17T11:26:18;2.63;;;1.17;;
18917;SDS011;9591;52.742;13.650;2024-03-17T11:29:32;3.70;;;1.20;;
18917;SDS011;9591;52.742;13.650;2024-03-17T11:32:25;1.53;;;1.00;;
18917;SDS011;9591;52.742;13.650;2024-03-17T11:35:16;2.50;;;1.40;;
18917;SDS011;9591;52.742;13.650;2024-03-17T11:38:08;1.20;;;1.00;;
18917;SDS011;9591;52.742;13.650;2024-03-17T11:40:53;2.20;;;1.30;;
18917;SDS011;9591;52.742;13.650;2024-03-17T11:44:29;4.93;;;1.30;;
18917;SDS011;9591;52.742;13.650;2024-03-17T11:47:14;2.43;;;1.13;;
18917;SDS011;9591;52.742;13.650;2024-03-17T11:50:11;0.97;;;0.90;;
18917;SDS011;9591;52.742;13.650;2024-03-17T11:53:35;1.40;;;1.20;;
18917;SDS011;9591;52.742;13.650;2024-03-17T11:56:23;1.33;;;1.23;;
18917;SDS011;9591;52.742;13.650;2024-03-17T11:59:18;5.83;;;1.30;;
18917;SDS011;9591;52.742;13.650;2024-03-17T12:02:15;2.00;;;1.10;;
18917;SDS011;9591;52.742;13.650;2024-03-17T12:05:16;2.17;;;1.20;;
18917;SDS011;9591;52.742;13.650;2024-03-17T12:08:06;1.60;;;1.50;;
18917;SDS011;9591;52.742;13.650;2024-03-17T12:17:15;0.97;;;0.83;;
18917;SDS011;9591;52.742;13.650;2024-03-17T12:23:13;3.70;;;1.30;;
18917;SDS011;9591;52.742;13.650;2024-03-17T12:26:01;1.50;;;0.97;;
18917;SDS011;9591;52.742;13.650;2024-03-17T12:28:47;1.00;;;1.00;;
18917;SDS011;9591;52.742;13.650;2024-03-17T12:31:33;1.63;;;0.77;;
18917;SDS011;9591;52.742;13.650;2024-03-17T12:34:24;4.10;;;1.20;;
18917;SDS011;9591;52.742;13.650;2024-03-17T12:37:16;0.93;;;0.93;;
18917;SDS011;9591;52.742;13.650;2024-03-17T12:40:02;1.20;;;1.10;;
18917;SDS011;9591;52.742;13.650;2024-03-17T12:42:54;4.00;;;0.87;;
18917;SDS011;9591;52.742;13.650;2024-03-17T12:45:42;3.63;;;1.27;;
18917;SDS011;9591;52.742;13.650;2024-03-17T12:48:34;2.80;;;1.20;;
18917;SDS011;9591;52.742;13.650;2024-03-17T12:51:23;1.00;;;1.00;;
18917;SDS011;9591;52.742;13.650;2024-03-17T12:54:13;2.67;;;1.20;;
18917;SDS011;9591;52.742;13.650;2024-03-17T12:57:05;1.30;;;1.20;;
18917;SDS011;9591;52.742;13.650;2024-03-17T13:00:18;1.67;;;1.57;;
18917;SDS011;9591;52.742;13.650;2024-03-17T13:03:23;1.80;;;1.17;;
18917;SDS011;9591;52.742;13.650;2024-03-17T13:06:20;2.87;;;1.40;;
18917;SDS011;9591;52.742;13.650;2024-03-17T13:09:09;1.70;;;1.03;;
18917;SDS011;9591;52.742;13.650;2024-03-17T13:11:55;2.53;;;1.00;;
18917;SDS011;9591;52.742;13.650;2024-03-17T13:14:42;2.20;;;1.43;;
18917;SDS011;9591;52.742;13.650;2024-03-17T13:17:28;1.13;;;1.07;;
18917;SDS011;9591;52.742;13.650;2024-03-17T13:20:19;3.40;;;1.40;;
18917;SDS011;9591;52.742;13.650;2024-03-17T13:23:11;2.97;;;1.20;;
18917;SDS011;9591;52.742;13.650;2024-03-17T13:26:00;2.03;;;1.20;;
18917;SDS011;9591;52.742;13.650;2024-03-17T13:28:50;3.30;;;1.30;;
18917;SDS011;9591;52.742;13.650;2024-03-17T13:31:36;4.30;;;1.60;;
18917;SDS011;9591;52.742;13.650;2024-03-17T13:34:23;1.77;;;1.30;;
18917;SDS011;9591;52.742;13.650;2024-03-17T13:37:11;1.20;;;1.10;;
18917;SDS011;9591;52.742;13.650;2024-03-17T13:39:58;1.10;;;1.00;;
18917;SDS011;9591;52.742;13.650;2024-03-17T13:42:48;1.10;;;1.10;;
18917;SDS011;9591;52.742;13.650;2024-03-17T13:45:43;3.30;;;1.13;;
18917;SDS011;9591;52.742;13.650;2024-03-17T13:48:31;3.13;;;1.30;;
18917;SDS011;9591;52.742;13.650;2024-03-17T13:51:20;4.13;;;1.27;;
18917;SDS011;9591;52.742;13.650;2024-03-17T13:54:05;1.33;;;1.27;;
18917;SDS011;9591;52.742;13.650;2024-03-17T13:56:57;2.33;;;1.33;;
18917;SDS011;9591;52.742;13.650;2024-03-17T13:59:56;2.13;;;1.30;;
18917;SDS011;9591;52.742;13.650;2024-03-17T14:02:43;3.07;;;1.70;;
18917;SDS011;9591;52.742;13.650;2024-03-17T14:05:33;2.70;;;1.47;;
18917;SDS011;9591;52.742;13.650;2024-03-17T14:11:30;2.27;;;1.20;;
18917;SDS011;9591;52.742;13.650;2024-03-17T14:14:23;3.40;;;1.10;;
18917;SDS011;9591;52.742;13.650;2024-03-17T14:17:10;7.07;;;1.57;;
18917;SDS011;9591;52.742;13.650;2024-03-17T14:19:56;2.73;;;1.40;;
18917;SDS011;9591;52.742;13.650;2024-03-17T14:22:43;2.73;;;1.20;;
18917;SDS011;9591;52.742;13.650;2024-03-17T14:25:31;2.70;;;1.40;;
18917;SDS011;9591;52.742;13.650;2024-03-17T14:28:18;1.53;;;0.90;;
18917;SDS011;9591;52.742;13.650;2024-03-17T14:31:26;4.33;;;1.33;;
18917;SDS011;9591;52.742;13.650;2024-03-17T14:34:22;1.37;;;1.27;;
18917;SDS011;9591;52.742;13.650;2024-03-17T14:37:09;1.60;;;1.20;;
18917;SDS011;9591;52.742;13.650;2024-03-17T14:40:00;1.53;;;1.10;;
18917;SDS011;9591;52.742;13.650;2024-03-17T14:42:46;1.33;;;1.23;;
18917;SDS011;9591;52.742;13.650;2024-03-17T14:45:35;1.20;;;1.20;;
18917;SDS011;9591;52.742;13.650;2024-03-17T14:48:27;1.20;;;1.10;;
18917;SDS011;9591;52.742;13.650;2024-03-17T14:51:15;1.87;;;1.40;;
18917;SDS011;9591;52.742;13.650;2024-03-17T14:54:14;1.43;;;1.13;;
18917;SDS011;9591;52.742;13.650;2024-03-17T14:57:02;1.17;;;1.17;;
18917;SDS011;9591;52.742;13.650;2024-03-17T14:59:48;6.67;;;1.30;;
18917;SDS011;9591;52.742;13.650;2024-03-17T15:02:34;2.67;;;1.50;;
18917;SDS011;9591;52.742;13.650;2024-03-17T15:05:22;1.40;;;1.30;;
18917;SDS011;9591;52.742;13.650;2024-03-17T15:08:12;3.00;;;1.47;;
18917;SDS011;9591;52.742;13.650;2024-03-17T15:10:58;4.13;;;1.60;;
18917;SDS011;9591;52.742;13.650;2024-03-17T15:13:46;1.73;;;1.37;;
18917;SDS011;9591;52.742;13.650;2024-03-17T15:16:35;2.97;;;1.37;;
18917;SDS011;9591;52.742;13.650;2024-03-17T15:19:23;2.17;;;1.10;;
18917;SDS011;9591;52.742;13.650;2024-03-17T15:22:13;3.93;;;1.40;;
18917;SDS011;9591;52.742;13.650;2024-03-17T15:25:01;1.30;;;1.20;;
18917;SDS011;9591;52.742;13.650;2024-03-17T15:27:50;1.90;;;1.30;;
18917;SDS011;9591;52.742;13.650;2024-03-17T15:30:36;1.87;;;1.30;;
18917;SDS011;9591;52.742;13.650;2024-03-17T15:33:24;1.80;;;1.20;;
18917;SDS011;9591;52.742;13.650;2024-03-17T15:36:13;2.57;;;1.50;;
18917;SDS011;9591;52.742;13.650;2024-03-17T15:39:06;2.27;;;1.60;;
18917;SDS011;9591;52.742;13.650;2024-03-17T15:42:00;3.83;;;1.23;;
18917;SDS011;9591;52.742;13.650;2024-03-17T15:44:49;1.57;;;1.20;;
18917;SDS011;9591;52.742;13.650;2024-03-17T15:47:35;2.53;;;1.30;;
18917;SDS011;9591;52.742;13.650;2024-03-17T15:50:21;2.03;;;1.10;;
18917;SDS011;9591;52.742;13.650;2024-03-17T15:53:10;2.77;;;1.57;;
18917;SDS011;9591;52.742;13.650;2024-03-17T15:55:58;5.67;;;1.50;;
18917;SDS011;9591;52.742;13.650;2024-03-17T15:58:47;2.40;;;1.30;;
18917;SDS011;9591;52.742;13.650;2024-03-17T16:01:33;1.57;;;1.00;;
18917;SDS011;9591;52.742;13.650;2024-03-17T16:04:20;3.93;;;1.00;;
18917;SDS011;9591;52.742;13.650;2024-03-17T16:07:11;4.53;;;1.83;;
18917;SDS011;9591;52.742;13.650;2024-03-17T16:10:00;0.90;;;0.90;;
18917;SDS011;9591;52.742;13.650;2024-03-17T16:12:47;2.40;;;1.40;;
18917;SDS011;9591;52.742;13.650;2024-03-17T16:15:33;4.67;;;1.30;;
18917;SDS011;9591;52.742;13.650;2024-03-17T16:18:19;3.77;;;1.40;;
18917;SDS011;9591;52.742;13.650;2024-03-17T16:21:06;2.20;;;1.20;;
18917;SDS011;9591;52.742;13.650;2024-03-17T16:23:58;3.57;;;1.40;;
18917;SDS011;9591;52.742;13.650;2024-03-17T16:26:45;2.33;;;1.50;;
18917;SDS011;9591;52.742;13.650;2024-03-17T16:29:46;3.33;;;1.07;;
18917;SDS011;9591;52.742;13.650;2024-03-17T16:32:32;4.60;;;1.80;;
18917;SDS011;9591;52.742;13.650;2024-03-17T16:35:22;2.53;;;1.80;;
18917;SDS011;9591;52.742;13.650;2024-03-17T16:38:15;2.57;;;1.23;;
18917;SDS011;9591;52.742;13.650;2024-03-17T16:41:01;2.33;;;1.43;;
18917;SDS011;9591;52.742;13.650;2024-03-17T16:43:53;5.10;;;1.20;;
18917;SDS011;9591;52.742;13.650;2024-03-17T16:50:11;2.47;;;1.40;;
18917;SDS011;9591;52.742;13.650;2024-03-17T16:52:57;1.57;;;1.47;;
18917;SDS011;9591;52.742;13.650;2024-03-17T16:55:43;1.20;;;1.10;;
18917;SDS011;9591;52.742;13.650;2024-03-17T16:58:29;1.23;;;1.13;;
18917;SDS011;9591;52.742;13.650;2024-03-17T17:01:15;2.07;;;1.80;;
18917;SDS011;9591;52.742;13.650;2024-03-17T17:04:02;2.13;;;1.40;;
18917;SDS011;9591;52.742;13.650;2024-03-17T17:10:02;1.90;;;1.40;;
18917;SDS011;9591;52.742;13.650;2024-03-17T17:12:51;2.23;;;1.57;;
18917;SDS011;9591;52.742;13.650;2024-03-17T17:15:41;6.27;;;2.20;;
18917;SDS011;9591;52.742;13.650;2024-03-17T17:22:00;1.80;;;1.30;;
18917;SDS011;9591;52.742;13.650;2024-03-17T17:24:46;1.90;;;1.63;;